sensor_id;sensor_type;location;lat;lon;timestamp;temperature;humidity
19033;DHT22;9649;51.042;13.804;2023-06-24T00:02:46;16.10;99.90
19033;DHT22;9649;51.042;13.804;2023-06-24T00:07:48;16.10;99.90
19033;DHT22;9649;51.042;13.804;2023-06-24T00:12:53;16.10;99.90
19033;DHT22;9649;51.042;13.804;2023-06-24T00:17:55;16.00;99.90
19033;DHT22;9649;51.042;13.804;2023-06-24T00:23:08;15.90;99.90
19033;DHT22;9649;51.042;13.804;2023-06-24T00:28:12;15.90;99.90
19033;DHT22;9649;51.042;13.804;2023-06-24T00:33:15;16.00;99.90
19033;DHT22;9649;51.042;13.804;2023-06-24T00:38:21;16.00;99.90
19033;DHT22;9649;51.042;13.804;2023-06-24T00:43:25;16.10;99.90
19033;DHT22;9649;51.042;13.804;2023-06-24T00:48:28;16.10;99.90
19033;DHT22;9649;51.042;13.804;2023-06-24T00:53:33;16.20;99.90
19033;DHT22;9649;51.042;13.804;2023-06-24T00:58:37;16.10;99.90
19033;DHT22;9649;51.042;13.804;2023-06-24T01:03:41;16.20;99.90
19033;DHT22;9649;51.042;13.804;2023-06-24T01:08:44;16.20;99.90
19033;DHT22;9649;51.042;13.804;2023-06-24T01:13:53;16.30;99.90
19033;DHT22;9649;51.042;13.804;2023-06-24T01:18:59;16.30;99.90
19033;DHT22;9649;51.042;13.804;2023-06-24T01:24:29;16.30;99.90
19033;DHT22;9649;51.042;13.804;2023-06-24T01:29:52;16.30;99.90
19033;DHT22;9649;51.042;13.804;2023-06-24T01:35:07;16.30;99.90
19033;DHT22;9649;51.042;13.804;2023-06-24T01:40:14;16.30;99.90
19033;DHT22;9649;51.042;13.804;2023-06-24T01:45:23;16.40;99.90
19033;DHT22;9649;51.042;13.804;2023-06-24T01:50:31;16.40;99.90
19033;DHT22;9649;51.042;13.804;2023-06-24T01:55:35;16.50;99.90
19033;DHT22;9649;51.042;13.804;2023-06-24T02:00:40;16.50;99.90
19033;DHT22;9649;51.042;13.804;2023-06-24T02:05:44;16.60;99.90
19033;DHT22;9649;51.042;13.804;2023-06-24T02:10:49;16.60;99.90
19033;DHT22;9649;51.042;13.804;2023-06-24T02:15:53;16.60;99.90
19033;DHT22;9649;51.042;13.804;2023-06-24T02:20:59;16.60;99.90
19033;DHT22;9649;51.042;13.804;2023-06-24T02:26:03;16.70;99.90
19033;DHT22;9649;51.042;13.804;2023-06-24T02:31:08;16.70;99.90
19033;DHT22;9649;51.042;13.804;2023-06-24T02:36:13;16.90;99.90
19033;DHT22;9649;51.042;13.804;2023-06-24T02:41:16;16.90;99.90
19033;DHT22;9649;51.042;13.804;2023-06-24T02:46:19;16.90;99.90
19033;DHT22;9649;51.042;13.804;2023-06-24T02:51:25;17.00;99.90
19033;DHT22;9649;51.042;13.804;2023-06-24T02:56:28;17.10;99.90
19033;DHT22;9649;51.042;13.804;2023-06-24T03:01:30;17.10;99.90
19033;DHT22;9649;51.042;13.804;2023-06-24T03:06:41;17.20;99.90
19033;DHT22;9649;51.042;13.804;2023-06-24T03:11:44;17.20;99.90
19033;DHT22;9649;51.042;13.804;2023-06-24T03:16:47;17.30;99.90
19033;DHT22;9649;51.042;13.804;2023-06-24T03:21:51;17.40;99.90
19033;DHT22;9649;51.042;13.804;2023-06-24T03:26:54;17.40;99.90
19033;DHT22;9649;51.042;13.804;2023-06-24T03:31:58;17.40;99.90
19033;DHT22;9649;51.042;13.804;2023-06-24T03:37:03;17.40;99.90
19033;DHT22;9649;51.042;13.804;2023-06-24T03:42:06;17.30;99.90
19033;DHT22;9649;51.042;13.804;2023-06-24T03:47:09;17.10;99.90
19033;DHT22;9649;51.042;13.804;2023-06-24T03:52:13;17.10;99.90
19033;DHT22;9649;51.042;13.804;2023-06-24T03:57:16;16.90;99.90
19033;DHT22;9649;51.042;13.804;2023-06-24T04:02:19;16.90;99.90
19033;DHT22;9649;51.042;13.804;2023-06-24T04:07:24;16.90;99.90
19033;DHT22;9649;51.042;13.804;2023-06-24T04:12:30;16.80;99.90
19033;DHT22;9649;51.042;13.804;2023-06-24T04:17:33;17.00;99.90
19033;DHT22;9649;51.042;13.804;2023-06-24T04:22:37;17.30;99.90
19033;DHT22;9649;51.042;13.804;2023-06-24T04:27:40;17.50;99.90
19033;DHT22;9649;51.042;13.804;2023-06-24T04:32:43;17.50;99.90
19033;DHT22;9649;51.042;13.804;2023-06-24T04:37:47;17.40;99.90
19033;DHT22;9649;51.042;13.804;2023-06-24T04:42:51;17.40;99.90
19033;DHT22;9649;51.042;13.804;2023-06-24T04:47:54;17.40;99.90
19033;DHT22;9649;51.042;13.804;2023-06-24T04:52:58;17.60;99.90
19033;DHT22;9649;51.042;13.804;2023-06-24T04:58:02;18.00;99.90
19033;DHT22;9649;51.042;13.804;2023-06-24T05:03:05;18.40;99.90
19033;DHT22;9649;51.042;13.804;2023-06-24T05:08:09;18.60;99.90
19033;DHT22;9649;51.042;13.804;2023-06-24T05:13:12;18.50;99.90
19033;DHT22;9649;51.042;13.804;2023-06-24T05:18:14;18.50;99.90
19033;DHT22;9649;51.042;13.804;2023-06-24T05:23:19;18.60;99.90
19033;DHT22;9649;51.042;13.804;2023-06-24T05:28:21;18.70;99.90
19033;DHT22;9649;51.042;13.804;2023-06-24T05:33:24;18.70;99.90
19033;DHT22;9649;51.042;13.804;2023-06-24T05:38:28;18.60;99.90
19033;DHT22;9649;51.042;13.804;2023-06-24T05:43:31;18.60;99.90
19033;DHT22;9649;51.042;13.804;2023-06-24T05:48:34;18.70;99.90
19033;DHT22;9649;51.042;13.804;2023-06-24T05:53:38;18.60;99.90
19033;DHT22;9649;51.042;13.804;2023-06-24T05:58:40;18.70;99.90
19033;DHT22;9649;51.042;13.804;2023-06-24T06:03:43;18.70;99.90
19033;DHT22;9649;51.042;13.804;2023-06-24T06:08:48;18.60;99.90
19033;DHT22;9649;51.042;13.804;2023-06-24T06:13:50;18.50;99.90
19033;DHT22;9649;51.042;13.804;2023-06-24T06:18:54;18.40;99.90
19033;DHT22;9649;51.042;13.804;2023-06-24T06:23:58;18.40;99.90
19033;DHT22;9649;51.042;13.804;2023-06-24T06:29:01;18.30;99.90
19033;DHT22;9649;51.042;13.804;2023-06-24T06:34:03;18.20;99.90
19033;DHT22;9649;51.042;13.804;2023-06-24T06:39:07;18.10;99.90
19033;DHT22;9649;51.042;13.804;2023-06-24T06:44:10;17.90;99.90
19033;DHT22;9649;51.042;13.804;2023-06-24T06:49:13;17.80;99.90
19033;DHT22;9649;51.042;13.804;2023-06-24T06:54:20;17.80;99.90
19033;DHT22;9649;51.042;13.804;2023-06-24T06:59:36;17.80;99.90
19033;DHT22;9649;51.042;13.804;2023-06-24T07:04:54;17.80;99.90
19033;DHT22;9649;51.042;13.804;2023-06-24T07:10:11;17.80;99.90
19033;DHT22;9649;51.042;13.804;2023-06-24T07:15:24;17.90;99.90
19033;DHT22;9649;51.042;13.804;2023-06-24T07:20:40;17.90;99.90
19033;DHT22;9649;51.042;13.804;2023-06-24T07:26:01;18.10;99.90
19033;DHT22;9649;51.042;13.804;2023-06-24T07:31:13;18.10;99.90
19033;DHT22;9649;51.042;13.804;2023-06-24T07:36:41;18.20;99.90
19033;DHT22;9649;51.042;13.804;2023-06-24T07:41:58;18.30;99.90
19033;DHT22;9649;51.042;13.804;2023-06-24T07:47:01;19.00;99.90
19033;DHT22;9649;51.042;13.804;2023-06-24T07:52:16;19.70;99.90
19033;DHT22;9649;51.042;13.804;2023-06-24T07:57:31;20.10;1.00
19033;DHT22;9649;51.042;13.804;2023-06-24T08:02:46;20.60;1.00
19033;DHT22;9649;51.042;13.804;2023-06-24T08:08:25;21.50;1.00
19033;DHT22;9649;51.042;13.804;2023-06-24T08:13:31;22.00;99.90
19033;DHT22;9649;51.042;13.804;2023-06-24T08:19:04;22.00;1.00
19033;DHT22;9649;51.042;13.804;2023-06-24T08:24:31;21.00;99.90
19033;DHT22;9649;51.042;13.804;2023-06-24T08:29:49;20.90;99.90
19033;DHT22;9649;51.042;13.804;2023-06-24T08:35:06;21.10;1.00
19033;DHT22;9649;51.042;13.804;2023-06-24T08:40:22;20.90;1.00
19033;DHT22;9649;51.042;13.804;2023-06-24T08:45:46;21.90;99.90
19033;DHT22;9649;51.042;13.804;2023-06-24T08:51:13;22.70;99.90
19033;DHT22;9649;51.042;13.804;2023-06-24T08:56:44;23.30;1.00
19033;DHT22;9649;51.042;13.804;2023-06-24T09:02:30;24.50;1.00
19033;DHT22;9649;51.042;13.804;2023-06-24T09:08:14;23.80;1.00
19033;DHT22;9649;51.042;13.804;2023-06-24T09:13:33;23.10;1.00
19033;DHT22;9649;51.042;13.804;2023-06-24T09:19:07;24.40;1.00
19033;DHT22;9649;51.042;13.804;2023-06-24T09:24:29;26.50;99.90
19033;DHT22;9649;51.042;13.804;2023-06-24T09:29:51;25.00;1.00
19033;DHT22;9649;51.042;13.804;2023-06-24T09:35:13;29.10;1.00
19033;DHT22;9649;51.042;13.804;2023-06-24T09:40:27;31.10;1.00
19033;DHT22;9649;51.042;13.804;2023-06-24T09:45:58;30.80;1.00
19033;DHT22;9649;51.042;13.804;2023-06-24T09:51:43;26.40;1.00
19033;DHT22;9649;51.042;13.804;2023-06-24T10:02:43;31.70;1.00
19033;DHT22;9649;51.042;13.804;2023-06-24T10:08:25;31.30;99.90
19033;DHT22;9649;51.042;13.804;2023-06-24T10:13:49;29.50;99.90
19033;DHT22;9649;51.042;13.804;2023-06-24T10:19:24;29.20;99.90
19033;DHT22;9649;51.042;13.804;2023-06-24T10:24:52;31.90;99.90
19033;DHT22;9649;51.042;13.804;2023-06-24T10:30:17;32.90;99.90
19033;DHT22;9649;51.042;13.804;2023-06-24T10:35:48;29.60;99.90
19033;DHT22;9649;51.042;13.804;2023-06-24T10:41:25;28.70;99.90
19033;DHT22;9649;51.042;13.804;2023-06-24T10:46:58;32.60;99.90
19033;DHT22;9649;51.042;13.804;2023-06-24T10:52:25;32.50;99.90
19033;DHT22;9649;51.042;13.804;2023-06-24T10:57:44;31.00;99.90
19033;DHT22;9649;51.042;13.804;2023-06-24T11:03:13;30.80;99.90
19033;DHT22;9649;51.042;13.804;2023-06-24T11:08:45;35.90;99.90
19033;DHT22;9649;51.042;13.804;2023-06-24T11:20:27;35.00;99.90
19033;DHT22;9649;51.042;13.804;2023-06-24T11:25:43;35.70;99.90
19033;DHT22;9649;51.042;13.804;2023-06-24T11:31:08;37.00;99.90
19033;DHT22;9649;51.042;13.804;2023-06-24T11:37:03;37.70;99.90
19033;DHT22;9649;51.042;13.804;2023-06-24T11:42:25;37.30;99.90
19033;DHT22;9649;51.042;13.804;2023-06-24T11:47:37;38.30;99.90
19033;DHT22;9649;51.042;13.804;2023-06-24T11:53:05;40.20;99.90
19033;DHT22;9649;51.042;13.804;2023-06-24T11:58:22;40.00;99.90
19033;DHT22;9649;51.042;13.804;2023-06-24T12:03:49;37.80;99.90
19033;DHT22;9649;51.042;13.804;2023-06-24T12:09:39;40.20;99.90
19033;DHT22;9649;51.042;13.804;2023-06-24T12:15:00;39.80;99.90
19033;DHT22;9649;51.042;13.804;2023-06-24T12:20:24;37.60;99.90
19033;DHT22;9649;51.042;13.804;2023-06-24T12:26:10;39.00;99.90
19033;DHT22;9649;51.042;13.804;2023-06-24T12:31:39;39.70;99.90
19033;DHT22;9649;51.042;13.804;2023-06-24T12:37:14;40.40;99.90
19033;DHT22;9649;51.042;13.804;2023-06-24T12:42:57;39.70;99.90
19033;DHT22;9649;51.042;13.804;2023-06-24T12:48:17;39.30;99.90
19033;DHT22;9649;51.042;13.804;2023-06-24T12:53:29;38.90;99.90
19033;DHT22;9649;51.042;13.804;2023-06-24T12:58:34;40.30;99.90
19033;DHT22;9649;51.042;13.804;2023-06-24T13:03:37;38.30;99.90
19033;DHT22;9649;51.042;13.804;2023-06-24T13:08:40;37.40;99.90
19033;DHT22;9649;51.042;13.804;2023-06-24T13:13:44;37.40;99.90
19033;DHT22;9649;51.042;13.804;2023-06-24T13:18:47;37.50;99.90
19033;DHT22;9649;51.042;13.804;2023-06-24T13:23:50;37.20;99.90
19033;DHT22;9649;51.042;13.804;2023-06-24T13:28:55;37.40;99.90
19033;DHT22;9649;51.042;13.804;2023-06-24T13:33:58;38.60;99.90
19033;DHT22;9649;51.042;13.804;2023-06-24T13:39:01;39.00;99.90
19033;DHT22;9649;51.042;13.804;2023-06-24T13:44:06;37.90;99.90
19033;DHT22;9649;51.042;13.804;2023-06-24T13:49:10;38.70;99.90
19033;DHT22;9649;51.042;13.804;2023-06-24T13:54:13;38.30;99.90
19033;DHT22;9649;51.042;13.804;2023-06-24T13:59:17;37.70;99.90
19033;DHT22;9649;51.042;13.804;2023-06-24T14:04:20;37.30;99.90
19033;DHT22;9649;51.042;13.804;2023-06-24T14:09:23;36.60;99.90
19033;DHT22;9649;51.042;13.804;2023-06-24T14:14:27;37.80;99.90
19033;DHT22;9649;51.042;13.804;2023-06-24T14:19:30;38.70;99.90
19033;DHT22;9649;51.042;13.804;2023-06-24T14:24:34;39.80;99.90
19033;DHT22;9649;51.042;13.804;2023-06-24T14:29:38;40.40;99.90
19033;DHT22;9649;51.042;13.804;2023-06-24T14:34:41;39.10;99.90
19033;DHT22;9649;51.042;13.804;2023-06-24T14:39:44;37.70;99.90
19033;DHT22;9649;51.042;13.804;2023-06-24T14:44:48;38.90;99.90
19033;DHT22;9649;51.042;13.804;2023-06-24T14:49:50;37.90;99.90
19033;DHT22;9649;51.042;13.804;2023-06-24T14:54:53;36.00;99.90
19033;DHT22;9649;51.042;13.804;2023-06-24T14:59:57;35.80;99.90
19033;DHT22;9649;51.042;13.804;2023-06-24T15:05:00;37.40;99.90
19033;DHT22;9649;51.042;13.804;2023-06-24T15:10:04;37.30;99.90
19033;DHT22;9649;51.042;13.804;2023-06-24T15:15:09;37.90;99.90
19033;DHT22;9649;51.042;13.804;2023-06-24T15:20:12;36.50;99.90
19033;DHT22;9649;51.042;13.804;2023-06-24T15:25:15;34.10;99.90
19033;DHT22;9649;51.042;13.804;2023-06-24T15:30:20;32.30;99.90
19033;DHT22;9649;51.042;13.804;2023-06-24T15:35:23;31.90;99.90
19033;DHT22;9649;51.042;13.804;2023-06-24T15:40:26;33.00;99.90
19033;DHT22;9649;51.042;13.804;2023-06-24T15:45:30;32.80;99.90
19033;DHT22;9649;51.042;13.804;2023-06-24T15:50:32;33.10;99.90
19033;DHT22;9649;51.042;13.804;2023-06-24T15:55:35;34.30;99.90
19033;DHT22;9649;51.042;13.804;2023-06-24T16:00:40;35.00;99.90
19033;DHT22;9649;51.042;13.804;2023-06-24T16:05:43;35.10;99.90
19033;DHT22;9649;51.042;13.804;2023-06-24T16:10:46;34.20;99.90
19033;DHT22;9649;51.042;13.804;2023-06-24T16:15:50;34.10;99.90
19033;DHT22;9649;51.042;13.804;2023-06-24T16:20:52;33.00;99.90
19033;DHT22;9649;51.042;13.804;2023-06-24T16:25:55;32.20;99.90
19033;DHT22;9649;51.042;13.804;2023-06-24T16:31:00;32.30;99.90
19033;DHT22;9649;51.042;13.804;2023-06-24T16:36:03;32.60;99.90
19033;DHT22;9649;51.042;13.804;2023-06-24T16:41:06;32.60;99.90
19033;DHT22;9649;51.042;13.804;2023-06-24T16:46:10;33.40;99.90
19033;DHT22;9649;51.042;13.804;2023-06-24T16:51:12;33.90;99.90
19033;DHT22;9649;51.042;13.804;2023-06-24T16:56:15;33.90;99.90
19033;DHT22;9649;51.042;13.804;2023-06-24T17:01:19;33.90;99.90
19033;DHT22;9649;51.042;13.804;2023-06-24T17:06:22;33.40;99.90
19033;DHT22;9649;51.042;13.804;2023-06-24T17:11:25;33.40;99.90
19033;DHT22;9649;51.042;13.804;2023-06-24T17:16:29;33.60;99.90
19033;DHT22;9649;51.042;13.804;2023-06-24T17:21:32;32.90;99.90
19033;DHT22;9649;51.042;13.804;2023-06-24T17:26:37;32.40;99.90
19033;DHT22;9649;51.042;13.804;2023-06-24T17:31:42;32.20;99.90
19033;DHT22;9649;51.042;13.804;2023-06-24T17:36:45;31.80;99.90
19033;DHT22;9649;51.042;13.804;2023-06-24T17:41:48;31.30;99.90
19033;DHT22;9649;51.042;13.804;2023-06-24T17:46:52;31.00;99.90
19033;DHT22;9649;51.042;13.804;2023-06-24T17:51:55;30.60;99.90
19033;DHT22;9649;51.042;13.804;2023-06-24T17:56:58;30.40;99.90
19033;DHT22;9649;51.042;13.804;2023-06-24T18:02:02;30.50;99.90
19033;DHT22;9649;51.042;13.804;2023-06-24T18:07:05;30.30;99.90
19033;DHT22;9649;51.042;13.804;2023-06-24T18:12:09;30.00;99.90
19033;DHT22;9649;51.042;13.804;2023-06-24T18:17:13;29.80;99.90
19033;DHT22;9649;51.042;13.804;2023-06-24T18:22:15;29.40;99.90
19033;DHT22;9649;51.042;13.804;2023-06-24T18:27:18;28.80;99.90
19033;DHT22;9649;51.042;13.804;2023-06-24T18:32:26;28.60;99.90
19033;DHT22;9649;51.042;13.804;2023-06-24T18:37:30;28.20;99.90
19033;DHT22;9649;51.042;13.804;2023-06-24T18:42:33;27.80;99.90
19033;DHT22;9649;51.042;13.804;2023-06-24T18:47:41;27.40;99.90
19033;DHT22;9649;51.042;13.804;2023-06-24T18:52:48;26.90;1.00
19033;DHT22;9649;51.042;13.804;2023-06-24T18:57:51;26.40;1.00
19033;DHT22;9649;51.042;13.804;2023-06-24T19:02:56;25.80;1.00
19033;DHT22;9649;51.042;13.804;2023-06-24T19:08:02;25.30;1.00
19033;DHT22;9649;51.042;13.804;2023-06-24T19:13:06;24.80;10.40
19033;DHT22;9649;51.042;13.804;2023-06-24T19:18:12;24.30;99.90
19033;DHT22;9649;51.042;13.804;2023-06-24T19:23:15;23.80;99.90
19033;DHT22;9649;51.042;13.804;2023-06-24T19:28:18;23.40;1.00
19033;DHT22;9649;51.042;13.804;2023-06-24T19:33:26;23.00;99.90
19033;DHT22;9649;51.042;13.804;2023-06-24T19:38:29;22.80;1.00
19033;DHT22;9649;51.042;13.804;2023-06-24T19:43:32;22.60;1.00
19033;DHT22;9649;51.042;13.804;2023-06-24T19:48:36;22.20;1.00
19033;DHT22;9649;51.042;13.804;2023-06-24T19:53:39;22.00;1.00
19033;DHT22;9649;51.042;13.804;2023-06-24T19:58:42;21.80;96.50
19033;DHT22;9649;51.042;13.804;2023-06-24T20:03:46;21.50;1.00
19033;DHT22;9649;51.042;13.804;2023-06-24T20:08:49;21.20;1.00
19033;DHT22;9649;51.042;13.804;2023-06-24T20:13:52;21.10;1.00
19033;DHT22;9649;51.042;13.804;2023-06-24T20:18:56;21.00;1.00
19033;DHT22;9649;51.042;13.804;2023-06-24T20:23:59;20.80;1.00
19033;DHT22;9649;51.042;13.804;2023-06-24T20:29:02;20.60;1.00
19033;DHT22;9649;51.042;13.804;2023-06-24T20:34:08;20.60;99.90
19033;DHT22;9649;51.042;13.804;2023-06-24T20:39:11;20.60;1.00
19033;DHT22;9649;51.042;13.804;2023-06-24T20:44:14;20.40;1.00
19033;DHT22;9649;51.042;13.804;2023-06-24T20:49:21;20.30;1.00
19033;DHT22;9649;51.042;13.804;2023-06-24T20:54:23;20.20;1.00
19033;DHT22;9649;51.042;13.804;2023-06-24T20:59:26;20.10;1.00
19033;DHT22;9649;51.042;13.804;2023-06-24T21:04:31;19.90;1.00
19033;DHT22;9649;51.042;13.804;2023-06-24T21:09:34;19.80;1.00
19033;DHT22;9649;51.042;13.804;2023-06-24T21:14:36;19.70;99.90
19033;DHT22;9649;51.042;13.804;2023-06-24T21:19:40;19.50;99.90
19033;DHT22;9649;51.042;13.804;2023-06-24T21:24:43;19.50;1.00
19033;DHT22;9649;51.042;13.804;2023-06-24T21:29:46;19.40;1.00
19033;DHT22;9649;51.042;13.804;2023-06-24T21:34:50;19.30;1.00
19033;DHT22;9649;51.042;13.804;2023-06-24T21:39:53;19.10;1.00
19033;DHT22;9649;51.042;13.804;2023-06-24T21:44:56;19.00;1.00
19033;DHT22;9649;51.042;13.804;2023-06-24T21:50:00;19.10;1.00
19033;DHT22;9649;51.042;13.804;2023-06-24T21:55:04;19.00;1.00
19033;DHT22;9649;51.042;13.804;2023-06-24T22:00:08;19.10;1.00
19033;DHT22;9649;51.042;13.804;2023-06-24T22:05:20;19.20;1.00
19033;DHT22;9649;51.042;13.804;2023-06-24T22:10:35;19.10;1.00
19033;DHT22;9649;51.042;13.804;2023-06-24T22:15:38;19.10;1.00
19033;DHT22;9649;51.042;13.804;2023-06-24T22:20:42;19.00;1.00
19033;DHT22;9649;51.042;13.804;2023-06-24T22:25:45;18.80;1.00
19033;DHT22;9649;51.042;13.804;2023-06-24T22:30:48;18.80;1.00
19033;DHT22;9649;51.042;13.804;2023-06-24T22:35:52;18.70;1.00
19033;DHT22;9649;51.042;13.804;2023-06-24T22:40:55;18.60;1.00
19033;DHT22;9649;51.042;13.804;2023-06-24T22:45:58;18.40;1.00
19033;DHT22;9649;51.042;13.804;2023-06-24T22:51:03;18.20;1.00
19033;DHT22;9649;51.042;13.804;2023-06-24T22:56:06;18.00;14.10
19033;DHT22;9649;51.042;13.804;2023-06-24T23:01:09;17.80;57.20
19033;DHT22;9649;51.042;13.804;2023-06-24T23:06:14;17.90;35.20
19033;DHT22;9649;51.042;13.804;2023-06-24T23:11:17;18.00;17.90
19033;DHT22;9649;51.042;13.804;2023-06-24T23:16:20;17.90;26.30
19033;DHT22;9649;51.042;13.804;2023-06-24T23:21:26;17.90;45.00
19033;DHT22;9649;51.042;13.804;2023-06-24T23:26:30;17.80;38.90
19033;DHT22;9649;51.042;13.804;2023-06-24T23:31:37;17.60;95.30
19033;DHT22;9649;51.042;13.804;2023-06-24T23:36:43;17.50;99.90
19033;DHT22;9649;51.042;13.804;2023-06-24T23:41:46;17.20;99.90
19033;DHT22;9649;51.042;13.804;2023-06-24T23:46:49;17.10;99.90
19033;DHT22;9649;51.042;13.804;2023-06-24T23:51:53;17.20;99.90
19033;DHT22;9649;51.042;13.804;2023-06-24T23:56:56;17.10;99.90
